createdAt,value
2018-11-13T00:00:27.109Z,9.92
2018-11-13T00:02:56.623Z,9.89
2018-11-13T00:05:26.220Z,9.79
2018-11-13T00:07:55.373Z,9.87
2018-11-13T00:10:24.559Z,9.91
2018-11-13T00:12:53.769Z,9.93
2018-11-13T00:15:23.025Z,9.90
2018-11-13T00:17:52.206Z,9.94
2018-11-13T00:20:21.416Z,9.89
2018-11-13T00:22:50.621Z,9.83
2018-11-13T00:25:20.325Z,9.80
2018-11-13T00:27:49.602Z,9.84
2018-11-13T00:30:21.902Z,9.77
2018-11-13T00:32:51.299Z,9.74
2018-11-13T00:35:21.105Z,9.74
2018-11-13T00:37:50.703Z,9.67
2018-11-13T00:40:20.029Z,9.71
2018-11-13T00:42:49.618Z,9.69
2018-11-13T00:45:18.807Z,9.70
2018-11-13T00:47:47.908Z,9.68
2018-11-13T00:50:18.466Z,9.72
2018-11-13T00:52:48.028Z,9.69
2018-11-13T00:55:17.195Z,9.60
2018-11-13T00:57:46.566Z,9.66
2018-11-13T01:00:18.704Z,9.58
2018-11-13T01:02:47.841Z,9.59
2018-11-13T01:05:18.202Z,9.58
2018-11-13T01:07:48.009Z,9.60
2018-11-13T01:10:18.044Z,9.67
2018-11-13T01:12:47.779Z,9.79
2018-11-13T01:15:18.193Z,9.68
2018-11-13T01:17:47.993Z,9.74
2018-11-13T01:20:17.825Z,9.69
2018-11-13T01:22:47.057Z,9.63
2018-11-13T01:25:17.045Z,9.58
2018-11-13T01:27:46.669Z,9.64
2018-11-13T01:30:16.452Z,9.63
2018-11-13T01:32:45.961Z,9.66
2018-11-13T01:35:16.485Z,9.71
2018-11-13T01:37:45.681Z,9.76
2018-11-13T01:40:18.464Z,9.79
2018-11-13T01:42:47.685Z,9.76
2018-11-13T01:45:17.889Z,9.64
2018-11-13T01:47:47.071Z,9.57
2018-11-13T01:50:16.415Z,9.55
2018-11-13T01:52:52.344Z,9.55
2018-11-13T01:55:21.896Z,9.65
2018-11-13T01:57:50.717Z,9.67
2018-11-13T02:00:21.294Z,9.66
2018-11-13T02:02:51.773Z,9.69
2018-11-13T02:05:22.224Z,9.70
2018-11-13T02:07:51.961Z,9.74
2018-11-13T02:10:21.472Z,9.57
2018-11-13T02:12:51.227Z,9.59
2018-11-13T02:15:20.879Z,9.56
2018-11-13T02:17:50.125Z,9.64
2018-11-13T02:20:20.537Z,9.60
2018-11-13T02:22:49.743Z,9.54
2018-11-13T02:25:19.813Z,9.53
2018-11-13T02:27:49.416Z,9.54
2018-11-13T02:30:20.051Z,9.55
2018-11-13T02:32:49.548Z,9.51
2018-11-13T02:35:18.970Z,9.46
2018-11-13T02:37:48.149Z,9.44
2018-11-13T02:40:17.385Z,9.45
2018-11-13T02:42:46.609Z,9.51
2018-11-13T02:45:17.484Z,9.45
2018-11-13T02:47:46.670Z,9.43
2018-11-13T02:50:18.922Z,9.45
2018-11-13T02:52:48.120Z,9.45
2018-11-13T02:55:18.079Z,9.37
2018-11-13T02:57:47.659Z,9.42
2018-11-13T03:00:18.823Z,9.40
2018-11-13T03:02:48.010Z,9.41
2018-11-13T03:05:18.309Z,9.34
2018-11-13T03:07:47.594Z,9.27
2018-11-13T03:10:17.977Z,9.27
2018-11-13T03:12:47.159Z,9.28
2018-11-13T03:15:17.458Z,9.20
2018-11-13T03:17:46.683Z,9.19
2018-11-13T03:20:18.123Z,9.16
2018-11-13T03:22:47.877Z,9.16
2018-11-13T03:25:18.599Z,9.17
2018-11-13T03:27:47.805Z,9.22
2018-11-13T03:30:24.031Z,9.05
2018-11-13T03:32:53.620Z,9.07
2018-11-13T03:35:22.849Z,9.05
2018-11-13T03:37:52.039Z,8.98
2018-11-13T03:40:21.285Z,9.00
2018-11-13T03:42:50.937Z,8.94
2018-11-13T03:45:20.697Z,8.91
2018-11-13T03:47:49.890Z,9.11
2018-11-13T03:50:20.254Z,9.22
2018-11-13T03:52:49.556Z,9.19
2018-11-13T03:55:19.382Z,9.15
2018-11-13T03:57:49.295Z,9.01
2018-11-13T04:00:19.693Z,8.97
2018-11-13T04:02:48.867Z,8.92
2018-11-13T04:05:18.975Z,8.93
2018-11-13T04:07:49.355Z,9.04
2018-11-13T04:10:19.372Z,9.07
2018-11-13T04:12:48.560Z,8.95
2018-11-13T04:15:21.151Z,8.87
2018-11-13T04:17:50.379Z,8.77
2018-11-13T04:20:20.983Z,8.71
2018-11-13T04:22:50.352Z,8.72
2018-11-13T04:25:19.557Z,8.62
2018-11-13T04:27:48.757Z,8.63
2018-11-13T04:30:18.824Z,8.65
2018-11-13T04:32:48.007Z,8.60
2018-11-13T04:35:18.002Z,8.59
2018-11-13T04:37:47.174Z,8.57
2018-11-13T04:40:17.541Z,8.56
2018-11-13T04:42:48.885Z,8.53
2018-11-13T04:45:19.010Z,8.52
2018-11-13T04:47:48.694Z,8.55
2018-11-13T04:50:18.863Z,8.59
2018-11-13T04:52:48.072Z,8.55
2018-11-13T04:55:17.632Z,8.63
2018-11-13T04:57:47.755Z,8.63
2018-11-13T05:00:18.683Z,8.60
2018-11-13T05:02:48.114Z,8.62
2018-11-13T05:05:18.105Z,8.55
2018-11-13T05:07:51.492Z,8.57
2018-11-13T05:10:20.753Z,8.58
2018-11-13T05:12:50.206Z,8.60
2018-11-13T05:15:19.397Z,8.59
2018-11-13T05:17:48.584Z,8.60
2018-11-13T05:20:18.429Z,8.57
2018-11-13T05:22:47.605Z,8.57
2018-11-13T05:25:19.148Z,8.57
2018-11-13T05:27:48.443Z,8.50
2018-11-13T05:30:18.985Z,8.49
2018-11-13T05:32:48.148Z,8.42
2018-11-13T05:35:18.516Z,8.45
2018-11-13T05:37:48.046Z,8.59
2018-11-13T05:40:19.896Z,8.55
2018-11-13T05:42:49.072Z,8.55
2018-11-13T05:45:19.485Z,8.55
2018-11-13T05:47:48.630Z,8.69
2018-11-13T05:50:18.689Z,8.49
2018-11-13T05:52:49.357Z,8.47
2018-11-13T05:55:18.518Z,8.39
2018-11-13T05:57:48.080Z,8.39
2018-11-13T06:00:22.445Z,8.39
2018-11-13T06:02:51.585Z,8.37
2018-11-13T06:05:22.037Z,8.40
2018-11-13T06:07:51.151Z,8.42
2018-11-13T06:10:20.504Z,8.38
2018-11-13T06:12:49.796Z,8.34
2018-11-13T06:15:18.986Z,8.40
2018-11-13T06:17:48.194Z,8.34
2018-11-13T06:20:17.589Z,8.34
2018-11-13T06:22:46.777Z,8.35
2018-11-13T06:25:17.013Z,8.35
2018-11-13T06:27:47.353Z,8.34
2018-11-13T06:30:19.330Z,8.36
2018-11-13T06:32:49.204Z,8.40
2018-11-13T06:35:18.395Z,8.44
2018-11-13T06:37:47.574Z,8.40
2018-11-13T06:40:16.757Z,8.35
2018-11-13T06:42:45.953Z,8.39
2018-11-13T06:45:17.116Z,8.45
2018-11-13T06:47:47.069Z,8.56
2018-11-13T06:50:16.210Z,8.67
2018-11-13T06:52:46.176Z,8.71
2018-11-13T06:55:20.541Z,8.75
2018-11-13T06:57:49.717Z,8.80
2018-11-13T07:00:18.993Z,8.90
2018-11-13T07:02:48.258Z,8.93
2018-11-13T07:05:18.185Z,8.90
2018-11-13T07:07:47.697Z,9.02
2018-11-13T07:10:22.221Z,9.09
2018-11-13T07:12:52.141Z,9.15
2018-11-13T07:15:22.469Z,9.16
2018-11-13T07:17:52.974Z,9.21
2018-11-13T07:20:23.242Z,9.21
2018-11-13T07:22:52.428Z,9.35
2018-11-13T07:25:21.907Z,9.34
2018-11-13T07:27:51.074Z,9.44
2018-11-13T07:30:20.904Z,9.59
2018-11-13T07:32:50.053Z,9.71
2018-11-13T07:35:20.757Z,9.83
2018-11-13T07:37:51.779Z,9.88
2018-11-13T07:40:21.846Z,9.94
2018-11-13T07:42:51.207Z,10.04
2018-11-13T07:45:20.621Z,10.04
2018-11-13T07:47:50.297Z,10.16
2018-11-13T07:50:19.297Z,10.20
2018-11-13T07:52:48.471Z,10.30
2018-11-13T07:55:17.996Z,10.37
2018-11-13T07:57:47.179Z,10.45
2018-11-13T08:00:19.597Z,10.42
2018-11-13T08:02:50.128Z,10.50
2018-11-13T08:05:19.295Z,10.56
2018-11-13T08:07:48.479Z,10.57
2018-11-13T08:10:17.855Z,10.63
2018-11-13T08:12:47.251Z,10.75
2018-11-13T08:15:17.570Z,10.84
2018-11-13T08:17:46.740Z,10.95
2018-11-13T08:20:16.601Z,11.05
2018-11-13T08:22:45.889Z,11.17
2018-11-13T08:25:15.156Z,11.30
2018-11-13T08:27:44.343Z,11.42
2018-11-13T08:30:16.215Z,11.55
2018-11-13T08:32:46.217Z,11.67
2018-11-13T08:35:15.741Z,11.87
2018-11-13T08:37:45.157Z,12.11
2018-11-13T08:40:15.665Z,12.37
2018-11-13T08:42:45.533Z,12.68
2018-11-13T08:45:15.413Z,13.08
2018-11-13T08:47:44.722Z,13.29
2018-11-13T08:50:14.648Z,13.53
2018-11-13T08:52:44.774Z,13.74
2018-11-13T08:55:13.676Z,14.08
2018-11-13T08:57:43.130Z,14.47
2018-11-13T09:00:14.559Z,14.76
2018-11-13T09:02:44.396Z,15.01
2018-11-13T09:05:13.778Z,15.42
2018-11-13T09:07:42.844Z,15.71
2018-11-13T09:10:14.041Z,15.69
2018-11-13T09:12:43.838Z,15.35
2018-11-13T09:15:15.327Z,15.16
2018-11-13T09:17:44.505Z,15.03
2018-11-13T09:20:14.796Z,14.87
2018-11-13T09:22:44.008Z,15.10
2018-11-13T09:25:14.685Z,15.26
2018-11-13T09:27:43.910Z,15.38
2018-11-13T09:30:15.632Z,15.32
2018-11-13T09:32:45.098Z,15.18
2018-11-13T09:35:15.305Z,15.22
2018-11-13T09:37:44.503Z,15.16
2018-11-13T09:40:16.121Z,15.14
2018-11-13T09:42:46.291Z,15.21
2018-11-13T09:45:15.982Z,15.41
2018-11-13T09:47:45.252Z,15.52
2018-11-13T09:50:16.448Z,15.57
2018-11-13T09:52:46.818Z,15.61
2018-11-13T09:55:17.401Z,15.54
2018-11-13T09:57:46.606Z,15.57
2018-11-13T10:00:18.640Z,15.44
2018-11-13T10:02:49.752Z,16.01
2018-11-13T10:05:19.570Z,15.94
2018-11-13T10:07:48.989Z,15.89
2018-11-13T10:10:25.823Z,15.73
2018-11-13T10:12:55.133Z,15.72
2018-11-13T10:15:26.892Z,15.70
2018-11-13T10:17:56.256Z,15.75
2018-11-13T10:20:25.318Z,15.73
2018-11-13T10:22:55.669Z,15.78
2018-11-13T10:25:24.873Z,15.72
2018-11-13T10:27:54.117Z,15.50
2018-11-13T10:30:24.130Z,15.60
2018-11-13T10:32:54.030Z,15.63
2018-11-13T10:35:24.584Z,15.56
2018-11-13T10:37:53.774Z,15.34
2018-11-13T10:40:23.559Z,15.37
2018-11-13T10:42:53.271Z,15.06
2018-11-13T10:45:24.216Z,14.83
2018-11-13T10:47:53.437Z,14.58
2018-11-13T10:50:23.910Z,14.52
2018-11-13T10:52:53.125Z,14.48
2018-11-13T10:55:22.279Z,14.54
2018-11-13T10:57:51.461Z,14.61
2018-11-13T11:00:25.908Z,14.52
2018-11-13T11:03:00.481Z,14.21
2018-11-13T11:05:30.057Z,14.04
2018-11-13T11:07:59.397Z,14.09
2018-11-13T11:10:28.700Z,13.99
2018-11-13T11:12:58.004Z,13.93
2018-11-13T11:15:27.122Z,13.83
2018-11-13T11:17:56.285Z,13.77
2018-11-13T11:20:25.435Z,13.78
2018-11-13T11:22:54.629Z,13.62
2018-11-13T11:25:23.851Z,13.57
2018-11-13T11:27:53.050Z,13.48
2018-11-13T11:30:22.221Z,13.31
2018-11-13T11:32:51.428Z,13.27
2018-11-13T11:35:20.754Z,13.32
2018-11-13T11:37:49.941Z,13.33
2018-11-13T11:40:19.119Z,13.31
2018-11-13T11:42:48.295Z,13.20
2018-11-13T11:45:17.496Z,13.10
2018-11-13T11:47:46.673Z,13.09
2018-11-13T11:50:15.821Z,13.03
2018-11-13T11:52:44.984Z,12.96
2018-11-13T11:55:14.408Z,12.95
2018-11-13T11:57:43.670Z,12.91
2018-11-13T12:00:29.465Z,12.89
2018-11-13T12:02:58.751Z,12.97
2018-11-13T12:05:27.968Z,12.96
2018-11-13T12:07:57.269Z,13.12
2018-11-13T12:10:26.453Z,12.96
2018-11-13T12:12:55.663Z,12.96
2018-11-13T12:15:24.891Z,12.90
2018-11-13T12:17:54.096Z,12.91
2018-11-13T12:20:23.652Z,12.94
2018-11-13T12:22:52.883Z,12.91
2018-11-13T12:25:22.197Z,12.98
2018-11-13T12:27:51.431Z,13.00
2018-11-13T12:30:21.939Z,12.89
2018-11-13T12:32:51.866Z,12.87
2018-11-13T12:35:22.073Z,12.81
2018-11-13T12:37:51.321Z,12.79
2018-11-13T12:40:21.826Z,12.76
2018-11-13T12:42:51.327Z,12.68
2018-11-13T12:45:20.805Z,12.70
2018-11-13T12:47:50.043Z,12.73
2018-11-13T12:50:20.110Z,12.75
2018-11-13T12:52:49.272Z,12.73
2018-11-13T12:55:20.811Z,12.78
2018-11-13T12:57:50.010Z,12.74
2018-11-13T13:00:22.274Z,12.77
2018-11-13T13:02:51.653Z,12.71
2018-11-13T13:05:20.888Z,12.70
2018-11-13T13:07:50.037Z,12.65
2018-11-13T13:10:20.062Z,12.63
2018-11-13T13:12:49.293Z,12.57
2018-11-13T13:15:18.958Z,12.48
2018-11-13T13:17:48.151Z,12.53
2018-11-13T13:20:20.296Z,12.55
2018-11-13T13:22:50.165Z,12.56
2018-11-13T13:25:20.263Z,12.54
2018-11-13T13:27:49.428Z,12.61
2018-11-13T13:30:19.913Z,12.66
2018-11-13T13:32:49.522Z,12.66
2018-11-13T13:35:56.956Z,12.65
2018-11-13T13:38:26.241Z,12.64
2018-11-13T13:40:56.493Z,12.58
2018-11-13T13:43:26.532Z,12.58
2018-11-13T13:45:55.734Z,12.53
2018-11-13T13:48:24.977Z,12.54
2018-11-13T13:50:54.157Z,12.51
2018-11-13T13:53:24.256Z,12.55
2018-11-13T13:55:53.638Z,12.60
2018-11-13T13:58:23.894Z,12.55
2018-11-13T14:00:53.725Z,12.50
2018-11-13T14:03:22.734Z,12.48
2018-11-13T14:05:51.998Z,12.40
2018-11-13T14:08:21.306Z,12.40
2018-11-13T14:10:50.440Z,12.48
2018-11-13T14:13:19.610Z,12.42
2018-11-13T14:15:48.769Z,12.43
2018-11-13T14:18:17.913Z,12.34
2018-11-13T14:20:47.138Z,12.38
2018-11-13T14:23:16.210Z,12.35
2018-11-13T14:25:45.383Z,12.32
2018-11-13T14:28:14.533Z,12.38
2018-11-13T14:30:43.692Z,12.41
2018-11-13T14:33:13.443Z,12.37
2018-11-13T14:35:42.840Z,12.33
2018-11-13T14:38:11.912Z,12.36
2018-11-13T14:40:44.319Z,12.33
2018-11-13T14:43:13.737Z,12.33
2018-11-13T14:45:43.081Z,12.31
2018-11-13T14:48:12.721Z,12.27
2018-11-13T14:50:42.372Z,12.23
2018-11-13T14:53:12.124Z,12.24
2018-11-13T14:55:43.267Z,12.11
2018-11-13T14:58:13.838Z,12.06
2018-11-13T15:00:43.421Z,12.04
2018-11-13T15:03:14.076Z,11.97
2018-11-13T15:05:43.261Z,12.00
2018-11-13T15:08:12.869Z,11.99
2018-11-13T15:10:48.116Z,12.00
2018-11-13T15:13:17.689Z,12.05
2018-11-13T15:15:46.937Z,11.98
2018-11-13T15:18:16.195Z,12.09
2018-11-13T15:20:45.903Z,12.04
2018-11-13T15:23:15.956Z,12.04
2018-11-13T15:25:45.174Z,12.06
2018-11-13T15:28:14.559Z,12.06
2018-11-13T15:30:47.016Z,12.05
2018-11-13T15:33:23.010Z,12.01
2018-11-13T15:35:52.242Z,12.11
2018-11-13T15:38:21.394Z,12.09
2018-11-13T15:40:50.549Z,12.10
2018-11-13T15:43:19.884Z,12.04
2018-11-13T15:45:49.021Z,12.04
2018-11-13T15:48:18.236Z,12.00
2018-11-13T15:50:47.453Z,11.97
2018-11-13T15:53:16.736Z,11.98
2018-11-13T15:55:45.963Z,12.02
2018-11-13T15:58:15.394Z,12.12
2018-11-13T16:00:44.610Z,12.13
2018-11-13T16:03:20.465Z,12.14
2018-11-13T16:05:51.888Z,12.06
2018-11-13T16:08:21.052Z,11.96
2018-11-13T16:10:50.210Z,11.95
2018-11-13T16:13:19.473Z,11.96
2018-11-13T16:15:48.667Z,11.90
2018-11-13T16:18:19.428Z,11.87
2018-11-13T16:20:48.629Z,11.85
2018-11-13T16:23:17.865Z,11.84
2018-11-13T16:25:47.049Z,11.87
2018-11-13T16:28:16.233Z,11.84
2018-11-13T16:30:45.567Z,11.91
2018-11-13T16:33:14.641Z,11.85
2018-11-13T16:35:44.188Z,11.83
2018-11-13T16:38:13.803Z,11.80
2018-11-13T16:40:42.895Z,11.82
2018-11-13T16:43:12.119Z,11.85
2018-11-13T16:45:41.338Z,11.87
2018-11-13T16:48:10.557Z,11.82
2018-11-13T16:50:41.299Z,11.84
2018-11-13T16:53:10.678Z,11.84
2018-11-13T16:55:45.256Z,11.87
2018-11-13T16:58:15.628Z,11.88
2018-11-13T17:00:45.035Z,11.83
2018-11-13T17:03:14.062Z,11.82
2018-11-13T17:05:43.299Z,11.84
2018-11-13T17:08:12.375Z,11.87
2018-11-13T17:10:42.899Z,11.89
2018-11-13T17:13:12.039Z,11.89
2018-11-13T17:15:41.184Z,11.92
2018-11-13T17:18:10.358Z,11.95
2018-11-13T17:20:39.509Z,11.96
2018-11-13T17:23:08.751Z,11.96
2018-11-13T17:25:38.792Z,11.98
2018-11-13T17:28:08.756Z,12.03
2018-11-13T17:30:38.331Z,12.01
2018-11-13T17:33:09.983Z,12.02
2018-11-13T17:35:39.365Z,12.02
2018-11-13T17:38:08.745Z,12.05
2018-11-13T17:40:38.386Z,12.04
2018-11-13T17:43:08.647Z,12.02
2018-11-13T17:45:40.183Z,12.02
2018-11-13T17:48:11.335Z,12.01
2018-11-13T17:50:41.606Z,11.92
2018-11-13T17:53:11.676Z,11.94
2018-11-13T17:55:41.408Z,11.90
2018-11-13T17:58:13.133Z,11.89
2018-11-13T18:00:43.684Z,11.91
2018-11-13T18:03:14.541Z,11.86
2018-11-13T18:05:44.737Z,11.85
2018-11-13T18:08:14.118Z,11.83
2018-11-13T18:10:44.677Z,11.85
2018-11-13T18:13:13.917Z,11.81
2018-11-13T18:15:43.181Z,11.76
2018-11-13T18:18:12.365Z,11.75
2018-11-13T18:20:42.103Z,11.76
2018-11-13T18:23:11.448Z,11.79
2018-11-13T18:25:40.687Z,11.69
2018-11-13T18:28:09.940Z,11.74
2018-11-13T18:30:39.661Z,11.73
2018-11-13T18:33:09.360Z,11.69
2018-11-13T18:35:39.673Z,11.71
2018-11-13T18:38:10.527Z,11.67
2018-11-13T18:40:39.763Z,11.59
2018-11-13T18:43:08.923Z,11.61
2018-11-13T18:45:40.652Z,11.52
2018-11-13T18:48:10.236Z,11.49
2018-11-13T18:50:41.929Z,11.36
2018-11-13T18:53:11.332Z,11.37
2018-11-13T18:55:40.737Z,11.33
2018-11-13T18:58:09.889Z,11.38
2018-11-13T19:00:40.235Z,11.37
2018-11-13T19:03:10.838Z,11.34
2018-11-13T19:05:40.517Z,11.34
2018-11-13T19:08:09.914Z,11.32
2018-11-13T19:10:40.630Z,11.29
2018-11-13T19:13:13.899Z,11.28
2018-11-13T19:15:45.623Z,11.29
2018-11-13T19:18:15.363Z,11.29
2018-11-13T19:20:44.542Z,11.27
2018-11-13T19:23:13.799Z,11.22
2018-11-13T19:25:43.344Z,11.22
2018-11-13T19:28:12.697Z,11.19
2018-11-13T19:30:41.866Z,11.13
2018-11-13T19:33:11.317Z,11.14
2018-11-13T19:35:40.666Z,11.13
2018-11-13T19:38:09.726Z,11.07
2018-11-13T19:40:38.941Z,11.03
2018-11-13T19:43:09.670Z,10.95
2018-11-13T19:45:38.953Z,10.88
2018-11-13T19:48:08.187Z,10.90
2018-11-13T19:50:38.183Z,10.95
2018-11-13T19:53:07.541Z,10.87
2018-11-13T19:55:36.720Z,10.81
2018-11-13T19:58:06.055Z,10.77
2018-11-13T20:00:38.115Z,10.73
2018-11-13T20:03:08.858Z,10.74
2018-11-13T20:05:38.136Z,10.73
2018-11-13T20:08:08.677Z,10.79
2018-11-13T20:10:38.789Z,10.74
2018-11-13T20:13:08.793Z,10.80
2018-11-13T20:15:38.507Z,10.75
2018-11-13T20:18:08.134Z,10.75
2018-11-13T20:20:37.544Z,10.80
2018-11-13T20:23:07.873Z,10.79
2018-11-13T20:25:37.322Z,10.75
2018-11-13T20:28:06.727Z,10.75
2018-11-13T20:30:37.697Z,10.76
2018-11-13T20:33:07.228Z,10.79
2018-11-13T20:35:36.562Z,10.72
2018-11-13T20:38:06.426Z,10.68
2018-11-13T20:40:36.519Z,10.66
2018-11-13T20:43:07.460Z,10.64
2018-11-13T20:45:36.683Z,10.65
2018-11-13T20:48:06.492Z,10.60
2018-11-13T20:50:35.862Z,10.60
2018-11-13T20:53:05.078Z,10.59
2018-11-13T20:55:34.253Z,10.56
2018-11-13T20:58:03.470Z,10.47
2018-11-13T21:00:34.787Z,10.44
2018-11-13T21:03:03.999Z,10.38
2018-11-13T21:05:33.215Z,10.46
2018-11-13T21:08:02.414Z,10.49
2018-11-13T21:10:34.581Z,10.48
2018-11-13T21:13:04.236Z,10.45
2018-11-13T21:15:34.227Z,10.48
2018-11-13T21:18:03.661Z,10.47
2018-11-13T21:20:32.825Z,10.43
2018-11-13T21:23:02.307Z,10.41
2018-11-13T21:25:31.514Z,10.36
2018-11-13T21:28:01.967Z,10.35
2018-11-13T21:30:31.174Z,10.38
2018-11-13T21:33:00.341Z,10.37
2018-11-13T21:35:29.516Z,10.37
2018-11-13T21:37:58.870Z,10.34
2018-11-13T21:40:28.532Z,10.31
2018-11-13T21:42:58.262Z,10.29
2018-11-13T21:45:28.450Z,10.26
2018-11-13T21:47:57.692Z,10.18
2018-11-13T21:50:28.121Z,10.14
2018-11-13T21:52:57.434Z,10.06
2018-11-13T21:55:27.768Z,10.10
2018-11-13T21:57:56.952Z,10.08
2018-11-13T22:00:29.925Z,10.06
2018-11-13T22:03:05.830Z,10.06
2018-11-13T22:05:35.592Z,10.09
2018-11-13T22:08:04.814Z,9.98
2018-11-13T22:10:34.023Z,9.96
2018-11-13T22:13:03.272Z,9.95
2018-11-13T22:15:32.496Z,9.98
2018-11-13T22:18:02.168Z,9.95
2018-11-13T22:20:30.856Z,9.90
2018-11-13T22:23:01.054Z,9.90
2018-11-13T22:25:30.255Z,9.85
2018-11-13T22:27:59.929Z,9.75
2018-11-13T22:30:30.398Z,9.76
2018-11-13T22:32:59.590Z,9.69
2018-11-13T22:35:28.795Z,9.67
2018-11-13T22:37:58.057Z,9.58
2018-11-13T22:40:28.414Z,9.50
2018-11-13T22:42:58.110Z,9.48
2018-11-13T22:45:28.385Z,9.35
2018-11-13T22:47:57.925Z,9.32
2018-11-13T22:50:28.572Z,9.26
2018-11-13T22:52:58.051Z,9.24
2018-11-13T22:55:27.236Z,9.20
2018-11-13T22:57:57.285Z,9.22
2018-11-13T23:00:36.967Z,9.27
2018-11-13T23:03:08.059Z,9.23
2018-11-13T23:05:37.258Z,9.18
2018-11-13T23:08:07.322Z,9.22
2018-11-13T23:10:36.456Z,9.27
2018-11-13T23:13:06.023Z,9.17
2018-11-13T23:15:34.928Z,9.09
2018-11-13T23:18:04.103Z,9.09
2018-11-13T23:20:33.273Z,9.10
2018-11-13T23:23:02.405Z,9.07
2018-11-13T23:25:31.603Z,9.05
2018-11-13T23:28:00.787Z,9.01
2018-11-13T23:30:30.145Z,8.96
2018-11-13T23:32:59.899Z,8.87
2018-11-13T23:35:29.045Z,8.76
2018-11-13T23:37:59.403Z,8.71
2018-11-13T23:40:29.315Z,8.71
2018-11-13T23:42:58.482Z,8.64
2018-11-13T23:45:27.870Z,8.64
2018-11-13T23:47:57.109Z,8.58
2018-11-13T23:50:26.711Z,8.59
2018-11-13T23:52:55.533Z,8.58
2018-11-13T23:55:24.687Z,8.49
2018-11-13T23:57:53.907Z,8.46
